Time;durP1;ratioP1;P1;durP2;ratioP2;P2;SDS_P1;SDS_P2;PMS_P1;PMS_P2;Temp;Humidity;BMP_temperature;BMP_pressure;BME280_temperature;BME280_humidity;BME280_pressure;Samples;Min_cycle;Max_cycle;Signal;HPM_P1;HPM_P2
2023/11/30 00:00:48;;;;;;;;;;;19.40;63.00;;;;;;5040217;28;1462;-70
2023/11/30 00:03:13;;;;;;;;;;;19.40;63.00;;;;;;5042188;28;1490;-70
2023/11/30 00:05:39;;;;;;;;;;;19.40;63.00;;;;;;5044219;28;1982;-70
2023/11/30 00:08:05;;;;;;;;;;;19.40;63.00;;;;;;5035942;28;1531;-71
2023/11/30 00:10:31;;;;;;;;;;;19.40;63.00;;;;;;5041119;28;1534;-70
2023/11/30 00:12:56;;;;;;;;;;;19.40;63.00;;;;;;5041666;28;1404;-71
2023/11/30 00:15:22;;;;;;;;;;;19.40;63.00;;;;;;5040625;28;1438;-70
2023/11/30 00:17:47;;;;;;;;;;;19.40;63.10;;;;;;5042752;28;1433;-70
2023/11/30 00:20:13;;;;;;;;;;;19.40;63.10;;;;;;5043218;28;1549;-70
2023/11/30 00:22:38;;;;;;;;;;;19.40;63.10;;;;;;5043024;28;1382;-70
2023/11/30 00:25:04;;;;;;;;;;;19.40;63.10;;;;;;5042862;28;1359;-70
2023/11/30 00:27:29;;;;;;;;;;;19.40;63.10;;;;;;5041371;28;1992;-70
2023/11/30 00:29:55;;;;;;;;;;;19.40;63.10;;;;;;5042167;28;1252;-70
2023/11/30 00:32:20;;;;;;;;;;;19.40;63.10;;;;;;5041477;28;1462;-70
2023/11/30 00:34:46;;;;;;;;;;;19.40;63.10;;;;;;5040897;28;1417;-70
2023/11/30 00:37:11;;;;;;;;;;;19.40;63.10;;;;;;5041316;28;1453;-70
2023/11/30 00:39:37;;;;;;;;;;;19.40;63.10;;;;;;5038899;28;1718;-70
2023/11/30 00:42:03;;;;;;;;;;;19.40;63.10;;;;;;5042910;28;942;-70
2023/11/30 00:44:28;;;;;;;;;;;19.40;63.20;;;;;;5038751;28;1307;-70
2023/11/30 00:46:54;;;;;;;;;;;19.30;63.10;;;;;;5038500;28;1988;-70
2023/11/30 00:49:19;;;;;;;;;;;19.40;63.20;;;;;;5029233;28;1461;-70
2023/11/30 00:51:44;;;;;;;;;;;19.40;63.20;;;;;;5041852;28;1384;-70
2023/11/30 00:54:10;;;;;;;;;;;19.30;63.10;;;;;;5041258;28;1329;-70
2023/11/30 00:56:35;;;;;;;;;;;19.40;63.20;;;;;;5040955;28;1374;-70
2023/11/30 00:59:01;;;;;;;;;;;19.40;63.30;;;;;;5041426;28;1408;-70
2023/11/30 01:01:26;;;;;;;;;;;19.40;63.20;;;;;;5040938;28;1505;-70
2023/11/30 01:03:52;;;;;;;;;;;19.30;63.20;;;;;;5042272;28;887;-71
2023/11/30 01:06:17;;;;;;;;;;;19.30;63.20;;;;;;5040176;28;1999;-71
2023/11/30 01:08:43;;;;;;;;;;;19.30;63.20;;;;;;5039317;28;1547;-71
2023/11/30 01:11:08;;;;;;;;;;;19.30;63.20;;;;;;5030044;28;1232;-71
2023/11/30 01:13:34;;;;;;;;;;;19.30;63.20;;;;;;5042572;28;1065;-70
2023/11/30 01:15:59;;;;;;;;;;;19.30;63.20;;;;;;5040222;28;1296;-71
2023/11/30 01:18:24;;;;;;;;;;;19.30;63.20;;;;;;5040911;28;1202;-71
2023/11/30 01:20:50;;;;;;;;;;;19.30;63.40;;;;;;5041593;28;1294;-70
2023/11/30 01:23:15;;;;;;;;;;;19.30;63.20;;;;;;5043973;28;1422;-70
2023/11/30 01:25:41;;;;;;;;;;;19.30;63.20;;;;;;5043186;28;1981;-70
2023/11/30 01:28:07;;;;;;;;;;;19.30;63.30;;;;;;5044115;28;1371;-71
2023/11/30 01:30:32;;;;;;;;;;;19.30;63.30;;;;;;5045427;28;1482;-71
2023/11/30 01:32:58;;;;;;;;;;;19.30;63.30;;;;;;5043345;28;1304;-71
2023/11/30 01:35:28;;;;;;;;;;;19.30;63.30;;;;;;5044207;28;1436;-70
2023/11/30 01:37:54;;;;;;;;;;;19.30;63.40;;;;;;5042518;28;1362;-71
2023/11/30 01:40:19;;;;;;;;;;;19.30;63.40;;;;;;5043644;28;1322;-70
2023/11/30 01:42:45;;;;;;;;;;;19.30;63.40;;;;;;5046658;28;1363;-71
2023/11/30 01:45:10;;;;;;;;;;;19.30;63.30;;;;;;5042828;28;1363;-71
2023/11/30 01:47:36;;;;;;;;;;;19.30;63.30;;;;;;5041764;28;1913;-70
2023/11/30 01:50:01;;;;;;;;;;;19.30;63.40;;;;;;5042848;28;1433;-70
2023/11/30 01:52:28;;;;;;;;;;;19.30;63.40;;;;;;5032725;28;1431;-71
2023/11/30 01:54:53;;;;;;;;;;;19.30;63.40;;;;;;5044066;28;1470;-71
2023/11/30 01:57:19;;;;;;;;;;;19.30;63.40;;;;;;5042561;28;1360;-71
2023/11/30 01:59:44;;;;;;;;;;;19.30;63.40;;;;;;5044432;28;1416;-71
2023/11/30 02:02:10;;;;;;;;;;;19.30;63.40;;;;;;5043353;28;1355;-71
2023/11/30 02:04:35;;;;;;;;;;;19.30;63.50;;;;;;5043479;28;1627;-70
2023/11/30 02:07:00;;;;;;;;;;;19.30;63.40;;;;;;5043938;28;1988;-71
2023/11/30 02:09:26;;;;;;;;;;;19.30;63.40;;;;;;5031715;28;1723;-71
2023/11/30 02:11:51;;;;;;;;;;;19.30;63.40;;;;;;5044493;28;1362;-71
2023/11/30 02:14:17;;;;;;;;;;;19.30;63.50;;;;;;5025934;28;1328;-71
2023/11/30 02:16:42;;;;;;;;;;;19.20;64.10;;;;;;5044256;28;1476;-71
2023/11/30 02:19:08;;;;;;;;;;;19.30;63.50;;;;;;5042069;28;1276;-70
2023/11/30 02:21:33;;;;;;;;;;;19.20;63.40;;;;;;5042326;28;1663;-70
2023/11/30 02:23:59;;;;;;;;;;;19.20;63.40;;;;;;5043147;28;1371;-71
2023/11/30 02:26:24;;;;;;;;;;;19.20;63.50;;;;;;5044038;28;1914;-70
2023/11/30 02:28:50;;;;;;;;;;;19.20;63.50;;;;;;5024753;28;1311;-71
2023/11/30 02:31:15;;;;;;;;;;;19.20;63.50;;;;;;5044607;28;1752;-71
2023/11/30 02:33:40;;;;;;;;;;;19.20;63.50;;;;;;5043123;28;1866;-71
2023/11/30 02:36:06;;;;;;;;;;;19.20;63.50;;;;;;5044096;28;1466;-71
2023/11/30 02:38:32;;;;;;;;;;;19.20;63.60;;;;;;5040613;28;1291;-71
2023/11/30 02:40:57;;;;;;;;;;;19.20;63.50;;;;;;5038564;28;1275;-71
2023/11/30 02:43:23;;;;;;;;;;;19.20;63.50;;;;;;5024436;28;1440;-71
2023/11/30 02:45:48;;;;;;;;;;;19.20;63.50;;;;;;5026544;28;1914;-71
2023/11/30 02:48:14;;;;;;;;;;;19.20;63.50;;;;;;5041972;28;1464;-70
2023/11/30 02:50:39;;;;;;;;;;;19.20;63.50;;;;;;5030169;28;1699;-71
2023/11/30 02:53:05;;;;;;;;;;;19.20;63.50;;;;;;5031272;28;1435;-71
2023/11/30 02:55:30;;;;;;;;;;;19.20;63.50;;;;;;5042926;28;1378;-71
2023/11/30 02:57:56;;;;;;;;;;;19.20;63.50;;;;;;5041162;28;1524;-71
2023/11/30 03:00:21;;;;;;;;;;;19.20;63.50;;;;;;5044176;28;1311;-71
2023/11/30 03:02:47;;;;;;;;;;;19.20;63.50;;;;;;5024895;28;1359;-71
2023/11/30 03:05:12;;;;;;;;;;;19.20;63.50;;;;;;5042184;28;1442;-71
2023/11/30 03:07:38;;;;;;;;;;;19.20;63.60;;;;;;5043531;28;1969;-71
2023/11/30 03:10:03;;;;;;;;;;;19.20;63.50;;;;;;5041450;28;1553;-70
2023/11/30 03:12:29;;;;;;;;;;;19.20;63.60;;;;;;5044320;28;1507;-71
2023/11/30 03:14:54;;;;;;;;;;;19.20;63.50;;;;;;5031493;28;1227;-71
2023/11/30 03:17:20;;;;;;;;;;;19.20;63.50;;;;;;5041095;28;1404;-71
2023/11/30 03:19:46;;;;;;;;;;;19.20;63.40;;;;;;5042175;28;1371;-71
2023/11/30 03:22:11;;;;;;;;;;;19.20;63.40;;;;;;5043117;28;1415;-71
2023/11/30 03:24:36;;;;;;;;;;;19.20;63.40;;;;;;5024201;28;1553;-71
2023/11/30 03:27:02;;;;;;;;;;;19.20;63.30;;;;;;5041181;28;1959;-71
2023/11/30 03:29:27;;;;;;;;;;;19.20;63.20;;;;;;5042423;28;1397;-71
2023/11/30 03:31:53;;;;;;;;;;;19.30;63.30;;;;;;5044085;28;1261;-71
2023/11/30 03:34:18;;;;;;;;;;;19.30;63.20;;;;;;5044918;28;1295;-71
2023/11/30 03:36:44;;;;;;;;;;;19.30;63.30;;;;;;5030848;28;1389;-71
2023/11/30 03:39:09;;;;;;;;;;;19.30;63.20;;;;;;5039478;28;1678;-71
2023/11/30 03:41:35;;;;;;;;;;;19.30;63.20;;;;;;5022808;28;1240;-71
2023/11/30 03:44:00;;;;;;;;;;;19.30;63.10;;;;;;5043403;28;1358;-70
2023/11/30 03:46:26;;;;;;;;;;;19.30;63.10;;;;;;5042662;28;1909;-71
2023/11/30 03:48:55;;;;;;;;;;;19.30;63.10;;;;;;5042745;28;913;-70
2023/11/30 03:51:20;;;;;;;;;;;19.30;63.10;;;;;;5022799;28;1215;-71
2023/11/30 03:53:46;;;;;;;;;;;19.30;63.10;;;;;;5041010;28;1512;-71
2023/11/30 03:56:11;;;;;;;;;;;19.30;63.00;;;;;;5041663;28;1256;-71
2023/11/30 03:58:37;;;;;;;;;;;19.30;63.10;;;;;;5041323;28;1409;-70
2023/11/30 04:01:02;;;;;;;;;;;19.30;63.10;;;;;;5042467;28;1312;-70
2023/11/30 04:03:28;;;;;;;;;;;19.30;63.00;;;;;;5039496;28;1444;-70
2023/11/30 04:05:53;;;;;;;;;;;19.30;63.10;;;;;;5043467;28;1969;-71
2023/11/30 04:08:18;;;;;;;;;;;19.30;63.10;;;;;;5040646;28;1439;-70
2023/11/30 04:10:44;;;;;;;;;;;19.30;63.10;;;;;;5042755;28;1155;-70
2023/11/30 04:13:09;;;;;;;;;;;19.30;63.10;;;;;;5026365;28;1351;-70
2023/11/30 04:15:35;;;;;;;;;;;19.30;63.10;;;;;;5041227;28;1361;-70
2023/11/30 04:18:00;;;;;;;;;;;19.30;63.10;;;;;;5041464;28;1326;-70
2023/11/30 04:20:26;;;;;;;;;;;19.30;63.10;;;;;;5024692;28;1384;-70
2023/11/30 04:22:51;;;;;;;;;;;19.30;63.10;;;;;;5041511;28;1461;-70
2023/11/30 04:25:17;;;;;;;;;;;19.30;63.10;;;;;;5040041;28;1304;-71
2023/11/30 04:27:42;;;;;;;;;;;19.30;63.20;;;;;;5038751;28;1971;-70
2023/11/30 04:30:08;;;;;;;;;;;19.20;63.10;;;;;;5040768;28;1582;-70
2023/11/30 04:32:33;;;;;;;;;;;19.30;63.20;;;;;;5043371;28;1289;-70
2023/11/30 04:34:59;;;;;;;;;;;19.30;63.20;;;;;;5039874;28;1470;-70
2023/11/30 04:37:24;;;;;;;;;;;19.20;63.20;;;;;;5039716;28;1759;-71
2023/11/30 04:39:50;;;;;;;;;;;19.30;63.30;;;;;;5022895;28;1400;-70
2023/11/30 04:42:15;;;;;;;;;;;19.30;63.20;;;;;;5040265;28;1349;-70
2023/11/30 04:44:41;;;;;;;;;;;19.20;63.20;;;;;;5038112;28;1351;-71
2023/11/30 04:47:06;;;;;;;;;;;19.30;63.30;;;;;;5028995;28;1989;-70
2023/11/30 04:49:32;;;;;;;;;;;19.20;63.20;;;;;;5040683;28;1551;-70
2023/11/30 04:51:57;;;;;;;;;;;19.20;63.20;;;;;;5042400;28;1317;-70
2023/11/30 04:54:23;;;;;;;;;;;19.20;63.20;;;;;;5042986;28;1621;-70
2023/11/30 04:56:48;;;;;;;;;;;19.20;63.30;;;;;;5039734;28;1562;-71
2023/11/30 04:59:14;;;;;;;;;;;19.20;63.30;;;;;;5030033;28;1276;-70
2023/11/30 05:01:39;;;;;;;;;;;19.20;63.30;;;;;;5021636;28;1539;-70
2023/11/30 05:04:05;;;;;;;;;;;19.20;63.30;;;;;;5039834;28;1389;-71
2023/11/30 05:06:30;;;;;;;;;;;19.20;63.30;;;;;;5038268;28;1980;-70
2023/11/30 05:08:56;;;;;;;;;;;19.20;63.30;;;;;;5036209;28;1470;-71
2023/11/30 05:11:21;;;;;;;;;;;19.20;63.30;;;;;;5037787;28;1366;-70
2023/11/30 05:13:47;;;;;;;;;;;19.20;63.30;;;;;;5040681;28;1365;-70
2023/11/30 05:16:12;;;;;;;;;;;19.20;63.20;;;;;;5041959;28;1509;-70
2023/11/30 05:18:38;;;;;;;;;;;19.30;63.20;;;;;;5041856;28;1939;-70
2023/11/30 05:21:03;;;;;;;;;;;19.30;63.10;;;;;;5041821;28;1371;-70
2023/11/30 05:23:29;;;;;;;;;;;19.30;63.00;;;;;;5041646;28;1443;-70
2023/11/30 05:25:54;;;;;;;;;;;19.40;62.90;;;;;;5040408;28;1963;-71
2023/11/30 05:28:20;;;;;;;;;;;19.50;62.90;;;;;;5037524;28;1224;-70
2023/11/30 05:30:45;;;;;;;;;;;19.50;62.70;;;;;;5039297;28;1512;-70
2023/11/30 05:33:11;;;;;;;;;;;19.60;62.40;;;;;;5039606;28;1145;-70
2023/11/30 05:35:36;;;;;;;;;;;19.60;62.20;;;;;;5041870;28;1310;-70
2023/11/30 05:38:02;;;;;;;;;;;19.70;62.00;;;;;;5038755;28;1360;-71
2023/11/30 05:40:28;;;;;;;;;;;19.70;61.80;;;;;;5042225;28;1517;-70
2023/11/30 05:42:54;;;;;;;;;;;19.80;61.60;;;;;;5028674;28;1227;-70
2023/11/30 05:45:19;;;;;;;;;;;19.80;61.50;;;;;;5038667;28;1394;-70
2023/11/30 05:47:45;;;;;;;;;;;19.90;61.40;;;;;;5037984;28;1906;-70
2023/11/30 05:50:10;;;;;;;;;;;19.90;61.20;;;;;;5040153;28;1419;-70
2023/11/30 05:52:36;;;;;;;;;;;20.00;61.20;;;;;;5041751;28;1504;-70
2023/11/30 05:55:03;;;;;;;;;;;19.90;60.90;;;;;;5041948;28;1467;-70
2023/11/30 05:57:29;;;;;;;;;;;20.00;60.90;;;;;;5036893;28;1516;-71
2023/11/30 05:59:54;;;;;;;;;;;20.00;60.80;;;;;;5039999;28;1244;-70
2023/11/30 06:02:21;;;;;;;;;;;20.00;60.60;;;;;;5039006;28;1409;-71
2023/11/30 06:04:51;;;;;;;;;;;20.00;60.60;;;;;;5039645;28;1417;-70
2023/11/30 06:07:16;;;;;;;;;;;20.10;60.60;;;;;;5039387;28;1926;-70
2023/11/30 06:09:42;;;;;;;;;;;20.10;60.60;;;;;;5044984;28;1461;-70
2023/11/30 06:12:08;;;;;;;;;;;20.10;60.50;;;;;;5043838;28;1420;-70
2023/11/30 06:14:34;;;;;;;;;;;20.10;60.50;;;;;;5043200;28;1457;-70
2023/11/30 06:16:59;;;;;;;;;;;20.10;60.40;;;;;;5043434;28;1394;-71
2023/11/30 06:19:25;;;;;;;;;;;20.10;60.40;;;;;;5043220;28;1450;-70
2023/11/30 06:21:50;;;;;;;;;;;20.10;60.30;;;;;;5046168;28;1438;-70
2023/11/30 06:24:16;;;;;;;;;;;20.10;60.30;;;;;;5043236;28;1569;-70
2023/11/30 06:26:41;;;;;;;;;;;20.10;60.30;;;;;;5039436;28;1975;-70
2023/11/30 06:29:10;;;;;;;;;;;20.10;60.30;;;;;;5042563;28;1218;-70
2023/11/30 06:31:37;;;;;;;;;;;20.10;60.30;;;;;;5040960;28;1432;-70
2023/11/30 06:34:02;;;;;;;;;;;20.10;60.30;;;;;;5046651;28;1265;-70
2023/11/30 06:36:28;;;;;;;;;;;20.10;58.10;;;;;;5033114;28;1494;-70
2023/11/30 06:38:53;;;;;;;;;;;20.00;54.30;;;;;;5027480;28;1953;-70
2023/11/30 06:41:19;;;;;;;;;;;20.00;54.90;;;;;;5039422;28;1826;-70
2023/11/30 06:43:44;;;;;;;;;;;20.00;55.40;;;;;;5044001;28;1265;-68
2023/11/30 06:46:17;;;;;;;;;;;20.00;55.60;;;;;;5042888;28;1972;-68
2023/11/30 06:48:43;;;;;;;;;;;20.00;56.00;;;;;;5029945;28;1140;-71
2023/11/30 06:51:08;;;;;;;;;;;20.00;56.50;;;;;;5026400;28;1406;-70
2023/11/30 06:53:34;;;;;;;;;;;19.90;56.90;;;;;;5042488;28;1156;-70
2023/11/30 06:56:00;;;;;;;;;;;19.90;57.20;;;;;;5041329;28;1520;-70
2023/11/30 06:58:25;;;;;;;;;;;19.90;57.40;;;;;;5041267;28;1669;-68
2023/11/30 07:00:51;;;;;;;;;;;19.90;57.60;;;;;;5043674;28;1377;-67
2023/11/30 07:03:17;;;;;;;;;;;19.90;57.80;;;;;;5042698;28;1529;-67
2023/11/30 07:05:42;;;;;;;;;;;19.90;57.90;;;;;;5039476;28;1985;-68
2023/11/30 07:08:08;;;;;;;;;;;19.90;58.10;;;;;;5040639;28;1351;-69
2023/11/30 07:10:33;;;;;;;;;;;19.90;58.20;;;;;;5042901;28;1363;-68
2023/11/30 07:12:58;;;;;;;;;;;19.90;58.50;;;;;;5042913;28;1484;-69
2023/11/30 07:15:24;;;;;;;;;;;19.90;58.50;;;;;;5044204;28;1491;-69
2023/11/30 07:17:49;;;;;;;;;;;19.90;58.60;;;;;;5039473;28;1359;-69
2023/11/30 07:20:15;;;;;;;;;;;19.90;58.60;;;;;;5040838;28;1589;-68
2023/11/30 07:22:41;;;;;;;;;;;19.90;58.70;;;;;;5040014;28;1861;-69
2023/11/30 07:25:07;;;;;;;;;;;20.00;58.70;;;;;;5039945;28;1363;-68
2023/11/30 07:27:32;;;;;;;;;;;20.00;58.80;;;;;;5041460;28;1898;-70
2023/11/30 07:29:58;;;;;;;;;;;20.00;58.80;;;;;;5040115;28;1349;-69
2023/11/30 07:32:23;;;;;;;;;;;20.00;58.70;;;;;;5041295;28;1378;-69
2023/11/30 07:34:49;;;;;;;;;;;20.10;58.80;;;;;;5040620;28;1174;-68
2023/11/30 07:37:21;;;;;;;;;;;20.10;58.80;;;;;;5041360;28;1420;-68
2023/11/30 07:39:46;;;;;;;;;;;20.10;58.80;;;;;;5041356;28;1346;-68
2023/11/30 07:42:16;;;;;;;;;;;20.10;58.80;;;;;;5040830;28;1245;-69
2023/11/30 07:44:41;;;;;;;;;;;20.10;58.80;;;;;;5035282;28;1798;-68
2023/11/30 07:47:07;;;;;;;;;;;20.10;58.80;;;;;;5043418;28;1906;-68
2023/11/30 07:49:32;;;;;;;;;;;20.10;58.90;;;;;;5040512;28;1438;-69
2023/11/30 07:51:58;;;;;;;;;;;20.10;58.90;;;;;;5029764;28;1514;-68
2023/11/30 07:54:24;;;;;;;;;;;20.20;59.00;;;;;;5041080;28;1461;-68
2023/11/30 07:56:49;;;;;;;;;;;20.20;59.00;;;;;;5039761;28;1382;-70
2023/11/30 07:59:15;;;;;;;;;;;20.30;59.00;;;;;;5041451;28;1446;-69
2023/11/30 08:01:42;;;;;;;;;;;20.30;59.00;;;;;;5039430;28;1389;-69
2023/11/30 08:04:07;;;;;;;;;;;20.40;59.00;;;;;;5041852;28;1969;-69
2023/11/30 08:06:33;;;;;;;;;;;20.50;58.90;;;;;;5022885;28;1929;-69
2023/11/30 08:08:59;;;;;;;;;;;20.50;58.80;;;;;;5039888;28;2102;-69
2023/11/30 08:11:24;;;;;;;;;;;20.60;58.70;;;;;;5040698;28;1378;-70
2023/11/30 08:13:50;;;;;;;;;;;20.60;58.50;;;;;;5041363;28;1396;-69
2023/11/30 08:16:15;;;;;;;;;;;20.70;58.60;;;;;;5043433;28;1603;-69
2023/11/30 08:18:41;;;;;;;;;;;20.80;58.60;;;;;;5041515;28;1392;-69
2023/11/30 08:21:06;;;;;;;;;;;20.90;58.60;;;;;;5041054;28;1870;-69
2023/11/30 08:23:33;;;;;;;;;;;21.00;58.60;;;;;;5023907;28;1472;-68
2023/11/30 08:25:59;;;;;;;;;;;21.00;58.50;;;;;;5038211;28;1961;-69
2023/11/30 08:28:24;;;;;;;;;;;21.10;58.60;;;;;;5040373;28;1362;-68
2023/11/30 08:30:51;;;;;;;;;;;21.20;58.60;;;;;;5038600;28;1236;-69
2023/11/30 08:33:17;;;;;;;;;;;21.20;58.50;;;;;;5040329;28;1138;-69
2023/11/30 08:35:42;;;;;;;;;;;21.20;58.50;;;;;;5040562;28;1412;-69
2023/11/30 08:38:09;;;;;;;;;;;21.30;58.50;;;;;;5025160;28;1482;-69
2023/11/30 08:40:34;;;;;;;;;;;21.30;58.40;;;;;;5027028;28;1598;-69
2023/11/30 08:43:00;;;;;;;;;;;21.30;58.40;;;;;;5040841;28;1153;-69
2023/11/30 08:45:27;;;;;;;;;;;21.40;58.50;;;;;;5040382;28;1434;-69
2023/11/30 08:47:53;;;;;;;;;;;21.40;58.50;;;;;;5040490;28;1902;-69
2023/11/30 08:50:19;;;;;;;;;;;21.40;58.50;;;;;;5040246;28;1360;-69
2023/11/30 08:52:45;;;;;;;;;;;21.40;58.60;;;;;;5040502;28;1870;-69
2023/11/30 08:55:10;;;;;;;;;;;21.40;58.70;;;;;;5028940;28;1616;-69
2023/11/30 08:57:36;;;;;;;;;;;21.50;58.70;;;;;;5039919;28;1545;-69
2023/11/30 09:00:05;;;;;;;;;;;21.50;58.80;;;;;;5041786;28;1347;-69
2023/11/30 09:02:31;;;;;;;;;;;21.50;58.80;;;;;;5041267;28;1439;-69
2023/11/30 09:04:56;;;;;;;;;;;21.50;58.80;;;;;;5024379;28;1534;-69
2023/11/30 09:07:22;;;;;;;;;;;21.50;58.80;;;;;;5042501;28;1906;-69
2023/11/30 09:09:48;;;;;;;;;;;21.50;58.90;;;;;;5042610;28;1380;-69
2023/11/30 09:12:13;;;;;;;;;;;21.60;58.90;;;;;;5041641;28;1300;-69
2023/11/30 09:14:39;;;;;;;;;;;21.60;58.90;;;;;;5043144;28;1635;-69
2023/11/30 09:17:05;;;;;;;;;;;21.60;59.00;;;;;;5039056;28;1844;-69
2023/11/30 09:19:31;;;;;;;;;;;21.60;59.10;;;;;;5040058;28;1348;-69
2023/11/30 09:21:57;;;;;;;;;;;21.60;59.10;;;;;;5021437;28;2007;-69
2023/11/30 09:24:22;;;;;;;;;;;21.60;59.30;;;;;;5039732;28;1953;-69
2023/11/30 09:26:49;;;;;;;;;;;21.50;59.10;;;;;;5039642;28;1910;-69
2023/11/30 09:29:15;;;;;;;;;;;21.60;59.20;;;;;;5026311;28;1398;-69
2023/11/30 09:31:41;;;;;;;;;;;21.60;59.20;;;;;;5042031;28;1343;-69
2023/11/30 09:34:06;;;;;;;;;;;21.50;59.40;;;;;;5041423;28;1375;-69
2023/11/30 09:36:32;;;;;;;;;;;21.50;59.30;;;;;;5039587;28;1428;-69
2023/11/30 09:38:57;;;;;;;;;;;21.50;59.40;;;;;;5044112;28;1398;-69
2023/11/30 09:41:23;;;;;;;;;;;21.50;59.50;;;;;;5041141;28;1454;-69
2023/11/30 09:43:48;;;;;;;;;;;21.50;59.50;;;;;;5042030;28;1059;-69
2023/11/30 09:46:14;;;;;;;;;;;21.50;59.60;;;;;;5033131;28;1913;-69
2023/11/30 09:48:39;;;;;;;;;;;21.50;59.60;;;;;;5032036;28;1246;-69
2023/11/30 09:51:05;;;;;;;;;;;21.50;59.60;;;;;;5025344;28;1464;-69
2023/11/30 09:53:31;;;;;;;;;;;21.40;59.70;;;;;;5026957;28;1706;-69
2023/11/30 09:55:56;;;;;;;;;;;21.40;59.70;;;;;;5026403;28;1431;-70
2023/11/30 09:58:21;;;;;;;;;;;21.40;59.80;;;;;;5042341;28;1443;-69
2023/11/30 10:00:47;;;;;;;;;;;21.40;59.90;;;;;;5041672;28;1360;-69
2023/11/30 10:03:13;;;;;;;;;;;21.40;59.90;;;;;;5043285;28;1446;-69
2023/11/30 10:05:41;;;;;;;;;;;21.40;60.30;;;;;;5045164;28;1914;-69
2023/11/30 10:08:07;;;;;;;;;;;21.40;60.40;;;;;;5044167;28;1378;-69
2023/11/30 10:10:33;;;;;;;;;;;21.40;60.40;;;;;;5043473;28;1462;-69
2023/11/30 10:12:58;;;;;;;;;;;21.40;60.60;;;;;;5041149;28;1248;-69
2023/11/30 10:15:25;;;;;;;;;;;21.30;60.70;;;;;;5043720;28;1272;-69
2023/11/30 10:17:51;;;;;;;;;;;21.40;60.80;;;;;;5044881;28;1462;-69
2023/11/30 10:20:17;;;;;;;;;;;21.30;60.60;;;;;;5030608;28;1643;-68
2023/11/30 10:22:42;;;;;;;;;;;21.30;60.50;;;;;;5044194;28;2008;-69
2023/11/30 10:25:08;;;;;;;;;;;21.40;60.60;;;;;;5044915;28;1371;-69
2023/11/30 10:27:34;;;;;;;;;;;21.40;60.60;;;;;;5040970;28;1906;-69
2023/11/30 10:30:01;;;;;;;;;;;21.40;60.50;;;;;;5043617;28;1996;-68
2023/11/30 10:32:26;;;;;;;;;;;21.40;60.70;;;;;;5030020;28;1443;-69
2023/11/30 10:34:54;;;;;;;;;;;21.50;60.60;;;;;;5039073;28;1815;-69
2023/11/30 10:37:20;;;;;;;;;;;21.50;60.40;;;;;;5022996;28;1486;-69
2023/11/30 10:40:15;;;;;;;;;;;21.60;60.40;;;;;;5041239;28;1450;-69
2023/11/30 10:42:41;;;;;;;;;;;21.60;60.30;;;;;;5023104;28;1569;-69
2023/11/30 10:45:07;;;;;;;;;;;21.60;60.20;;;;;;5040473;28;1370;-69
2023/11/30 10:47:34;;;;;;;;;;;21.70;60.20;;;;;;5040518;28;1930;-70
2023/11/30 10:50:00;;;;;;;;;;;21.60;60.10;;;;;;5023325;28;2085;-69
2023/11/30 10:52:28;;;;;;;;;;;21.70;60.10;;;;;;5041774;28;1297;-69
2023/11/30 10:55:00;;;;;;;;;;;21.70;60.90;;;;;;5043349;28;1475;-69
2023/11/30 10:57:25;;;;;;;;;;;21.70;60.10;;;;;;5040187;28;1410;-69
2023/11/30 10:59:58;;;;;;;;;;;21.70;61.10;;;;;;5043058;28;1458;-69
2023/11/30 11:02:24;;;;;;;;;;;21.70;60.80;;;;;;5042399;28;1371;-68
2023/11/30 11:04:51;;;;;;;;;;;21.70;60.30;;;;;;5040883;28;1418;-69
2023/11/30 11:07:16;;;;;;;;;;;21.60;60.30;;;;;;5015729;28;1987;-69
2023/11/30 11:09:42;;;;;;;;;;;21.60;60.50;;;;;;5025818;28;2156;-68
2023/11/30 11:12:21;;;;;;;;;;;21.60;60.70;;;;;;5044649;28;1962;-68
2023/11/30 11:14:48;;;;;;;;;;;21.60;60.70;;;;;;5043047;28;1407;-69
2023/11/30 11:17:14;;;;;;;;;;;21.60;60.70;;;;;;5031160;28;1563;-69
2023/11/30 11:19:40;;;;;;;;;;;21.60;60.90;;;;;;5039667;28;1390;-69
2023/11/30 11:22:21;;;;;;;;;;;21.60;60.80;;;;;;5042954;28;1357;-68
2023/11/30 11:24:49;;;;;;;;;;;21.60;60.90;;;;;;5040877;28;1752;-69
2023/11/30 11:27:27;;;;;;;;;;;21.60;61.00;;;;;;5040865;28;1981;-69
2023/11/30 11:29:54;;;;;;;;;;;21.50;61.00;;;;;;5040782;28;1366;-68
2023/11/30 11:32:19;;;;;;;;;;;21.50;61.30;;;;;;5043255;28;1361;-69
2023/11/30 11:34:44;;;;;;;;;;;21.50;61.20;;;;;;5028322;28;1408;-69
2023/11/30 11:37:10;;;;;;;;;;;21.50;61.50;;;;;;5043593;28;1479;-68
2023/11/30 11:39:35;;;;;;;;;;;21.50;61.50;;;;;;5041333;28;1655;-68
2023/11/30 11:42:02;;;;;;;;;;;21.40;61.50;;;;;;5043448;28;1321;-68
2023/11/30 11:44:27;;;;;;;;;;;21.40;61.50;;;;;;5039320;28;1484;-69
2023/11/30 11:46:53;;;;;;;;;;;21.40;61.90;;;;;;5040430;28;1971;-69
2023/11/30 11:49:18;;;;;;;;;;;21.40;62.20;;;;;;5040078;28;1335;-69
2023/11/30 11:51:44;;;;;;;;;;;21.40;62.10;;;;;;5040677;28;1515;-69
2023/11/30 11:54:16;;;;;;;;;;;21.40;62.20;;;;;;5031795;28;1486;-69
2023/11/30 11:56:48;;;;;;;;;;;21.40;62.20;;;;;;5021182;28;1655;-68
2023/11/30 11:59:20;;;;;;;;;;;21.30;62.20;;;;;;5043639;28;1325;-69
2023/11/30 12:01:47;;;;;;;;;;;21.30;62.30;;;;;;5042376;28;1449;-69
2023/11/30 12:04:13;;;;;;;;;;;21.30;62.20;;;;;;5041420;28;1651;-69
2023/11/30 12:06:38;;;;;;;;;;;21.30;62.20;;;;;;5025589;28;1906;-69
2023/11/30 12:09:10;;;;;;;;;;;21.30;62.20;;;;;;5039294;28;1467;-69
2023/11/30 12:11:36;;;;;;;;;;;21.30;62.60;;;;;;5043209;28;1341;-68
2023/11/30 12:14:01;;;;;;;;;;;21.30;62.60;;;;;;5024499;28;1300;-69
2023/11/30 12:16:26;;;;;;;;;;;21.30;62.50;;;;;;5041689;28;1345;-68
2023/11/30 12:18:52;;;;;;;;;;;21.30;62.40;;;;;;5039645;28;1487;-69
2023/11/30 12:21:21;;;;;;;;;;;21.30;62.50;;;;;;5029714;28;1511;-69
2023/11/30 12:23:47;;;;;;;;;;;21.30;62.60;;;;;;5040607;28;1540;-69
2023/11/30 12:26:12;;;;;;;;;;;21.30;62.70;;;;;;5043992;28;1995;-70
2023/11/30 12:28:38;;;;;;;;;;;21.30;62.70;;;;;;5040818;28;1608;-69
2023/11/30 12:31:05;;;;;;;;;;;21.30;62.60;;;;;;5038158;28;1591;-69
2023/11/30 12:33:31;;;;;;;;;;;21.30;63.00;;;;;;5041156;28;1533;-69
2023/11/30 12:35:56;;;;;;;;;;;21.30;63.80;;;;;;5041411;28;1483;-69
2023/11/30 12:38:22;;;;;;;;;;;21.30;62.90;;;;;;5040089;28;1345;-69
2023/11/30 12:40:47;;;;;;;;;;;21.30;62.90;;;;;;5039365;28;1455;-69
2023/11/30 12:43:16;;;;;;;;;;;21.30;63.00;;;;;;5022775;28;1354;-69
2023/11/30 12:45:42;;;;;;;;;;;21.30;63.00;;;;;;5040197;28;1483;-70
2023/11/30 12:48:07;;;;;;;;;;;21.30;63.00;;;;;;5042835;28;1268;-71
2023/11/30 12:50:33;;;;;;;;;;;21.30;63.00;;;;;;5028357;28;1350;-72
2023/11/30 12:52:59;;;;;;;;;;;21.30;63.00;;;;;;5036394;28;1042;-71
2023/11/30 12:55:24;;;;;;;;;;;21.30;63.10;;;;;;5040685;28;1432;-71
2023/11/30 12:57:50;;;;;;;;;;;21.30;63.00;;;;;;5039863;28;1288;-71
2023/11/30 13:00:16;;;;;;;;;;;21.30;62.80;;;;;;5041921;28;1284;-70
2023/11/30 13:02:43;;;;;;;;;;;21.30;62.70;;;;;;5039779;28;1861;-70
2023/11/30 13:05:10;;;;;;;;;;;21.30;60.60;;;;;;5038320;28;1421;-70
2023/11/30 13:07:36;;;;;;;;;;;21.30;54.50;;;;;;5037582;28;1914;-70
2023/11/30 13:10:02;;;;;;;;;;;21.20;52.60;;;;;;5039323;28;1406;-70
2023/11/30 13:12:28;;;;;;;;;;;21.10;51.40;;;;;;5040528;28;1395;-69
2023/11/30 13:14:56;;;;;;;;;;;21.00;50.80;;;;;;5040380;28;1400;-70
2023/11/30 13:17:21;;;;;;;;;;;21.00;50.10;;;;;;5044482;28;1991;-70
2023/11/30 13:19:47;;;;;;;;;;;20.90;49.80;;;;;;5044114;28;1481;-70
2023/11/30 13:22:12;;;;;;;;;;;20.90;49.60;;;;;;5044016;28;1402;-70
2023/11/30 13:24:40;;;;;;;;;;;20.80;49.50;;;;;;5042217;28;1632;-70
2023/11/30 13:27:06;;;;;;;;;;;20.70;49.10;;;;;;5041807;28;2059;-70
2023/11/30 13:29:32;;;;;;;;;;;20.70;49.00;;;;;;5032601;28;1403;-70
2023/11/30 13:31:57;;;;;;;;;;;20.70;49.70;;;;;;5044790;28;1325;-71
2023/11/30 13:34:22;;;;;;;;;;;20.60;50.30;;;;;;5044029;28;1421;-70
2023/11/30 13:36:48;;;;;;;;;;;20.60;51.00;;;;;;5042805;28;1535;-69
2023/11/30 13:39:14;;;;;;;;;;;20.60;51.70;;;;;;5043400;28;1606;-70
2023/11/30 13:41:39;;;;;;;;;;;20.60;52.50;;;;;;5045433;28;1490;-69
2023/11/30 13:44:05;;;;;;;;;;;20.60;53.00;;;;;;5044355;28;1384;-70
2023/11/30 13:46:30;;;;;;;;;;;20.60;53.40;;;;;;5044558;28;2089;-70
2023/11/30 13:48:56;;;;;;;;;;;20.50;53.80;;;;;;5044610;28;1498;-70
2023/11/30 13:51:21;;;;;;;;;;;20.60;54.10;;;;;;5043195;28;2139;-69
2023/11/30 13:53:47;;;;;;;;;;;20.60;54.40;;;;;;5045040;28;1776;-71
2023/11/30 13:56:12;;;;;;;;;;;20.60;54.60;;;;;;5035635;28;1580;-69
2023/11/30 13:58:38;;;;;;;;;;;20.60;54.90;;;;;;5040214;28;1910;-70
2023/11/30 14:01:04;;;;;;;;;;;20.60;55.10;;;;;;5047603;28;1587;-70
2023/11/30 14:03:29;;;;;;;;;;;20.60;55.20;;;;;;5043999;28;1844;-69
2023/11/30 14:05:54;;;;;;;;;;;20.60;55.40;;;;;;5046139;28;1975;-69
2023/11/30 14:08:20;;;;;;;;;;;20.60;55.50;;;;;;5045628;28;1469;-68
2023/11/30 14:10:46;;;;;;;;;;;20.60;55.60;;;;;;5042079;28;1114;-70
2023/11/30 14:13:11;;;;;;;;;;;20.60;55.80;;;;;;5040446;28;1681;-69
2023/11/30 14:15:37;;;;;;;;;;;20.60;55.80;;;;;;5041998;28;1488;-70
2023/11/30 14:18:03;;;;;;;;;;;20.60;56.00;;;;;;5024365;28;1449;-69
2023/11/30 14:20:28;;;;;;;;;;;20.60;56.10;;;;;;5041638;28;1380;-67
2023/11/30 14:22:54;;;;;;;;;;;20.60;56.80;;;;;;5042140;28;1293;-68